Time;durP1;ratioP1;P1;durP2;ratioP2;P2;SDS_P1;SDS_P2;PMS_P1;PMS_P2;Temp;Humidity;BMP_temperature;BMP_pressure;BME280_temperature;BME280_humidity;BME280_pressure;Samples;Min_cycle;Max_cycle;Signal;HPM_P1;HPM_P2
2023/09/11 00:00:09;;;;;;;0.30;0.30;;;21.70;58.40;;;;;;6265676;22;20176;-83
2023/09/11 00:02:37;;;;;;;0.20;0.20;;;21.70;58.40;;;;;;6269886;22;20159;-84
2023/09/11 00:05:07;;;;;;;0.23;0.23;;;21.70;58.50;;;;;;6270864;22;20193;-84
2023/09/11 00:07:35;;;;;;;0.87;0.73;;;21.70;58.90;;;;;;6273278;22;20190;-84
2023/09/11 00:10:05;;;;;;;0.20;0.20;;;21.60;58.90;;;;;;6273257;22;20162;-84
2023/09/11 00:12:33;;;;;;;0.67;0.40;;;21.60;59.30;;;;;;6273761;22;20178;-83
2023/09/11 00:15:02;;;;;;;0.20;0.20;;;21.60;59.70;;;;;;6272453;22;20611;-84
2023/09/11 00:17:32;;;;;;;0.83;0.37;;;21.50;59.60;;;;;;6272305;22;20162;-85
2023/09/11 00:20:06;;;;;;;0.37;0.37;;;21.50;60.30;;;;;;6272746;22;20154;-85
2023/09/11 00:22:34;;;;;;;0.30;0.30;;;21.40;59.60;;;;;;6272628;22;20159;-84
2023/09/11 00:25:03;;;;;;;0.20;0.20;;;21.40;59.60;;;;;;6272317;22;20174;-85
2023/09/11 00:27:32;;;;;;;0.20;0.20;;;21.40;59.70;;;;;;6273521;22;20186;-85
2023/09/11 00:30:00;;;;;;;0.30;0.30;;;21.30;59.90;;;;;;6272709;22;20603;-87
2023/09/11 00:32:29;;;;;;;0.40;0.40;;;21.30;59.90;;;;;;6272460;22;20650;-86
2023/09/11 00:34:59;;;;;;;0.63;0.63;;;21.30;60.20;;;;;;6270843;22;20194;-84
2023/09/11 00:37:28;;;;;;;2.13;0.70;;;21.20;60.80;;;;;;6272306;22;20618;-85
2023/09/11 00:39:56;;;;;;;0.30;0.30;;;21.20;60.30;;;;;;6272841;22;20216;-84
2023/09/11 00:42:25;;;;;;;0.30;0.30;;;21.10;60.90;;;;;;6272544;22;20176;-84
2023/09/11 00:44:53;;;;;;;0.53;0.33;;;21.10;60.90;;;;;;6272507;22;20165;-85
2023/09/11 00:47:22;;;;;;;0.30;0.30;;;21.00;60.80;;;;;;6270735;22;20200;-83
2023/09/11 00:49:51;;;;;;;0.30;0.30;;;21.00;60.80;;;;;;6271543;22;20682;-84
2023/09/11 00:52:21;;;;;;;0.47;0.47;;;20.90;61.60;;;;;;6270938;22;20180;-85
2023/09/11 00:54:52;;;;;;;0.20;0.20;;;20.90;61.80;;;;;;6272631;22;20165;-84
2023/09/11 00:57:21;;;;;;;0.43;0.43;;;20.80;62.30;;;;;;6272249;22;20169;-85
2023/09/11 00:59:50;;;;;;;0.83;0.83;;;20.80;62.50;;;;;;6272725;22;20174;-86
2023/09/11 01:02:19;;;;;;;0.30;0.30;;;20.70;62.60;;;;;;6270994;22;20193;-84
2023/09/11 01:04:50;;;;;;;0.50;0.40;;;20.70;62.70;;;;;;6271870;22;20205;-85
2023/09/11 01:07:18;;;;;;;0.87;0.60;;;20.60;62.60;;;;;;6272230;22;20221;-84
2023/09/11 01:09:49;;;;;;;0.73;0.60;;;20.60;62.50;;;;;;6271487;22;20170;-84
2023/09/11 01:12:17;;;;;;;0.53;0.47;;;20.50;62.70;;;;;;6273237;22;20172;-85
2023/09/11 01:14:46;;;;;;;0.40;0.40;;;20.50;62.80;;;;;;6272211;22;20166;-86
2023/09/11 01:17:25;;;;;;;0.30;0.30;;;20.50;63.00;;;;;;6273272;22;20172;-87
2023/09/11 01:20:12;;;;;;;0.63;0.60;;;20.40;63.00;;;;;;6272688;22;20213;-84
2023/09/11 01:22:59;;;;;;;0.37;0.37;;;20.40;63.30;;;;;;6273518;22;20621;-86
2023/09/11 01:26:04;;;;;;;0.60;0.60;;;20.30;63.00;;;;;;6271775;22;20153;-84
2023/09/11 01:29:15;;;;;;;0.97;0.63;;;20.30;63.70;;;;;;6251809;22;20488;-85
2023/09/11 01:31:47;;;;;;;0.30;0.30;;;20.20;63.50;;;;;;6273381;22;20181;-85
2023/09/11 01:34:15;;;;;;;0.20;0.20;;;20.20;63.60;;;;;;6274811;22;20164;-86
2023/09/11 01:36:44;;;;;;;0.90;0.90;;;20.20;63.50;;;;;;6276781;22;20475;-86
2023/09/11 01:39:13;;;;;;;0.20;0.20;;;20.20;63.30;;;;;;6272949;22;20252;-85
2023/09/11 01:41:43;;;;;;;0.73;0.40;;;20.10;63.20;;;;;;6276053;22;20615;-84
2023/09/11 01:44:18;;;;;;;0.43;0.43;;;20.10;63.20;;;;;;6276917;22;20162;-85
2023/09/11 01:46:49;;;;;;;0.30;0.30;;;20.10;63.40;;;;;;6276424;22;20191;-86
2023/09/11 01:49:20;;;;;;;0.30;0.30;;;20.10;63.40;;;;;;6274538;22;20189;-85
2023/09/11 01:51:50;;;;;;;0.30;0.30;;;20.10;63.60;;;;;;6276807;22;20169;-86
2023/09/11 01:54:19;;;;;;;0.30;0.30;;;20.00;63.70;;;;;;6274837;22;20169;-86
2023/09/11 01:56:48;;;;;;;0.33;0.33;;;20.00;63.80;;;;;;6275224;22;20176;-84
2023/09/11 01:59:17;;;;;;;0.40;0.40;;;20.00;63.90;;;;;;6273660;22;20173;-84
2023/09/11 02:01:45;;;;;;;0.67;0.50;;;20.00;64.10;;;;;;6273790;22;20220;-85
2023/09/11 02:04:16;;;;;;;0.40;0.40;;;19.90;64.80;;;;;;6274944;22;20206;-84
2023/09/11 02:06:44;;;;;;;0.37;0.30;;;19.90;64.70;;;;;;6275554;22;20150;-85
2023/09/11 02:09:13;;;;;;;0.30;0.30;;;19.90;64.70;;;;;;6273898;22;20698;-85
2023/09/11 02:11:41;;;;;;;0.40;0.40;;;19.90;64.80;;;;;;6277433;22;20196;-86
2023/09/11 02:14:10;;;;;;;0.40;0.40;;;19.80;64.90;;;;;;6274683;22;20174;-84
2023/09/11 02:16:39;;;;;;;0.40;0.40;;;19.80;65.10;;;;;;6276074;22;20257;-86
2023/09/11 02:19:07;;;;;;;0.20;0.20;;;19.80;64.80;;;;;;6273881;22;20168;-85
2023/09/11 02:21:37;;;;;;;0.37;0.37;;;19.80;65.00;;;;;;6275459;22;20257;-84
2023/09/11 02:24:06;;;;;;;0.20;0.20;;;19.80;65.30;;;;;;6274604;22;20173;-84
2023/09/11 02:26:35;;;;;;;0.27;0.27;;;19.70;65.40;;;;;;6276063;22;20194;-86
2023/09/11 02:29:03;;;;;;;0.33;0.33;;;19.70;65.20;;;;;;6273054;22;20714;-84
2023/09/11 02:31:32;;;;;;;0.70;0.67;;;19.70;65.20;;;;;;6275102;22;20169;-85
2023/09/11 02:34:00;;;;;;;0.20;0.20;;;19.70;64.90;;;;;;6275268;22;20584;-84
2023/09/11 02:36:29;;;;;;;0.30;0.30;;;19.70;65.20;;;;;;6306410;22;20193;-84
2023/09/11 02:38:59;;;;;;;1.47;1.03;;;19.70;65.20;;;;;;6304740;22;20172;-83
2023/09/11 02:41:27;;;;;;;0.47;0.43;;;19.70;65.40;;;;;;6305812;22;20165;-86
2023/09/11 02:43:56;;;;;;;1.97;0.50;;;19.70;65.70;;;;;;6304799;22;20697;-84
2023/09/11 02:46:24;;;;;;;0.50;0.50;;;19.60;65.50;;;;;;6306152;22;20170;-85
2023/09/11 02:48:53;;;;;;;0.37;0.37;;;19.60;65.50;;;;;;6304923;22;20193;-83
2023/09/11 02:51:22;;;;;;;0.87;0.60;;;19.60;65.40;;;;;;6303334;22;20173;-85
2023/09/11 02:53:50;;;;;;;0.30;0.30;;;19.60;65.50;;;;;;6306018;22;20162;-85
2023/09/11 02:56:20;;;;;;;1.20;1.13;;;19.60;65.50;;;;;;6302664;22;20244;-85
2023/09/11 02:58:49;;;;;;;0.47;0.47;;;19.60;66.00;;;;;;6303387;22;20623;-84
2023/09/11 03:01:19;;;;;;;0.20;0.20;;;19.60;65.70;;;;;;6304454;22;20252;-85
2023/09/11 03:03:47;;;;;;;0.27;0.27;;;19.60;65.50;;;;;;6302144;22;20188;-85
2023/09/11 03:06:15;;;;;;;0.50;0.50;;;19.60;65.40;;;;;;6303952;22;20639;-85
2023/09/11 03:08:44;;;;;;;0.30;0.30;;;19.60;65.40;;;;;;6304750;22;20184;-85
2023/09/11 03:11:12;;;;;;;0.30;0.30;;;19.60;65.30;;;;;;6300861;22;20222;-86
2023/09/11 03:13:42;;;;;;;0.30;0.30;;;19.60;65.20;;;;;;6303206;22;20176;-86
2023/09/11 03:16:12;;;;;;;0.23;0.23;;;19.60;65.30;;;;;;6304767;22;20614;-86
2023/09/11 03:18:41;;;;;;;0.63;0.63;;;19.50;65.30;;;;;;6303742;22;20165;-84
2023/09/11 03:21:10;;;;;;;0.30;0.30;;;19.50;65.40;;;;;;6304211;22;20196;-84
2023/09/11 03:23:39;;;;;;;0.33;0.33;;;19.50;65.30;;;;;;6302107;22;20169;-86
2023/09/11 03:26:14;;;;;;;0.30;0.30;;;19.50;65.40;;;;;;6303454;22;20165;-83
2023/09/11 03:28:48;;;;;;;0.30;0.30;;;19.50;65.60;;;;;;6303190;22;20188;-83
2023/09/11 03:31:16;;;;;;;0.27;0.27;;;19.50;66.00;;;;;;6302962;22;20192;-84
2023/09/11 03:33:48;;;;;;;0.33;0.33;;;19.40;66.10;;;;;;6304487;22;20610;-85
2023/09/11 03:36:18;;;;;;;0.27;0.27;;;19.40;66.30;;;;;;6303624;22;20247;-85
2023/09/11 03:38:47;;;;;;;0.87;0.87;;;19.30;66.30;;;;;;6304418;22;20169;-83
2023/09/11 03:41:16;;;;;;;0.40;0.40;;;19.30;66.30;;;;;;6304001;22;20176;-84
2023/09/11 03:43:45;;;;;;;0.20;0.20;;;19.30;66.20;;;;;;6305645;22;20173;-85
2023/09/11 03:46:15;;;;;;;0.80;0.80;;;19.30;66.10;;;;;;6303927;22;20256;-84
2023/09/11 03:48:43;;;;;;;0.67;0.67;;;19.30;66.10;;;;;;6303601;22;20511;-84
2023/09/11 03:51:13;;;;;;;0.20;0.20;;;19.30;66.10;;;;;;6304015;22;20165;-84
2023/09/11 03:53:44;;;;;;;0.50;0.30;;;19.30;66.00;;;;;;6304187;22;20219;-85
2023/09/11 03:56:13;;;;;;;0.43;0.43;;;19.30;66.00;;;;;;6302491;22;20551;-84
2023/09/11 03:58:43;;;;;;;0.27;0.27;;;19.20;65.90;;;;;;6304561;22;20515;-85
2023/09/11 04:01:13;;;;;;;0.20;0.20;;;19.30;65.90;;;;;;6304032;22;20264;-84
2023/09/11 04:03:43;;;;;;;0.30;0.30;;;19.30;66.00;;;;;;6302146;22;20168;-84
2023/09/11 04:06:12;;;;;;;0.20;0.20;;;19.30;66.00;;;;;;6304071;22;20165;-86
2023/09/11 04:08:40;;;;;;;4.07;1.07;;;19.20;65.90;;;;;;6301628;22;20219;-85
2023/09/11 04:11:09;;;;;;;0.20;0.20;;;19.30;66.10;;;;;;6301947;22;20165;-86
2023/09/11 04:13:37;;;;;;;0.40;0.40;;;19.30;66.10;;;;;;6304612;22;20244;-84
2023/09/11 04:16:06;;;;;;;0.20;0.20;;;19.30;66.10;;;;;;6303245;22;20189;-84
2023/09/11 04:18:36;;;;;;;0.30;0.30;;;19.30;66.10;;;;;;6303333;22;20167;-84
2023/09/11 04:21:05;;;;;;;0.40;0.40;;;19.30;66.20;;;;;;6302976;22;20164;-83
2023/09/11 04:23:34;;;;;;;0.40;0.40;;;19.20;66.10;;;;;;6302536;22;20494;-84
2023/09/11 04:26:03;;;;;;;0.30;0.30;;;19.20;66.10;;;;;;6303195;22;20552;-83
2023/09/11 04:28:31;;;;;;;0.30;0.30;;;19.30;66.30;;;;;;6305169;22;20165;-84
2023/09/11 04:31:00;;;;;;;0.30;0.30;;;19.30;66.40;;;;;;6302839;22;20165;-86
2023/09/11 04:33:28;;;;;;;0.33;0.33;;;19.30;66.30;;;;;;6303474;22;20226;-85
2023/09/11 04:35:58;;;;;;;0.27;0.27;;;19.30;66.40;;;;;;6303868;22;20189;-85
2023/09/11 04:38:27;;;;;;;1.13;0.57;;;19.30;66.60;;;;;;6304483;22;20173;-86
2023/09/11 04:40:57;;;;;;;0.27;0.27;;;19.30;66.40;;;;;;6300823;22;20244;-85
2023/09/11 04:43:26;;;;;;;0.60;0.60;;;19.30;66.60;;;;;;6302038;22;20192;-85
2023/09/11 04:45:54;;;;;;;0.57;0.57;;;19.30;66.70;;;;;;6298964;22;20165;-83
2023/09/11 04:48:23;;;;;;;0.30;0.30;;;19.40;66.60;;;;;;6302633;22;20268;-83
2023/09/11 04:50:52;;;;;;;0.50;0.50;;;19.40;66.60;;;;;;6298220;22;20193;-84
2023/09/11 04:53:22;;;;;;;0.30;0.30;;;19.40;66.80;;;;;;6300720;22;20238;-84
2023/09/11 04:55:50;;;;;;;0.30;0.30;;;19.50;67.10;;;;;;6304144;22;20168;-84
2023/09/11 04:58:19;;;;;;;0.37;0.37;;;19.50;67.10;;;;;;6304096;22;20175;-84
2023/09/11 05:00:48;;;;;;;0.50;0.50;;;19.50;67.30;;;;;;6302760;22;20205;-83
2023/09/11 05:03:17;;;;;;;0.40;0.40;;;19.60;67.80;;;;;;6301850;22;20233;-84
2023/09/11 05:05:46;;;;;;;0.23;0.23;;;19.60;67.80;;;;;;6303978;22;20183;-85
2023/09/11 05:08:15;;;;;;;0.37;0.37;;;19.60;68.50;;;;;;6302528;22;20214;-85
2023/09/11 05:10:45;;;;;;;0.20;0.20;;;19.70;68.40;;;;;;6303752;22;20272;-85
2023/09/11 05:13:14;;;;;;;1.33;0.80;;;19.70;68.20;;;;;;6303141;22;20156;-84
2023/09/11 05:15:43;;;;;;;0.40;0.40;;;19.80;68.30;;;;;;6303430;22;20169;-84
2023/09/11 05:18:12;;;;;;;2.00;0.60;;;19.80;68.10;;;;;;6303166;22;20165;-84
2023/09/11 05:20:40;;;;;;;0.30;0.30;;;19.80;68.20;;;;;;6304694;22;20560;-84
2023/09/11 05:23:09;;;;;;;0.40;0.30;;;19.90;68.00;;;;;;6303059;22;20173;-84
2023/09/11 05:25:38;;;;;;;0.30;0.30;;;19.90;67.80;;;;;;6301795;22;20244;-85
2023/09/11 05:28:08;;;;;;;0.30;0.30;;;20.00;67.90;;;;;;6302765;22;20165;-84
2023/09/11 05:30:36;;;;;;;1.63;1.23;;;20.00;68.10;;;;;;6303996;22;20244;-85
2023/09/11 05:33:05;;;;;;;1.13;0.80;;;20.00;68.10;;;;;;6303257;22;20171;-85
2023/09/11 05:35:34;;;;;;;0.87;0.33;;;20.10;67.90;;;;;;6304080;22;20243;-87
2023/09/11 05:38:03;;;;;;;0.40;0.40;;;20.20;69.00;;;;;;6305454;22;20222;-85
2023/09/11 05:40:31;;;;;;;0.50;0.50;;;20.20;67.90;;;;;;6311886;22;20168;-84
2023/09/11 05:43:00;;;;;;;0.30;0.30;;;20.20;67.80;;;;;;6308195;22;20183;-85
2023/09/11 05:45:30;;;;;;;0.47;0.30;;;20.30;67.80;;;;;;6305880;22;20191;-85
2023/09/11 05:47:58;;;;;;;3.73;0.40;;;20.40;67.70;;;;;;6311072;22;20778;-85
2023/09/11 05:50:27;;;;;;;1.70;1.13;;;20.40;67.60;;;;;;6305776;22;20275;-85
2023/09/11 05:52:56;;;;;;;2.37;0.93;;;20.50;67.60;;;;;;6303792;22;20549;-86
2023/09/11 05:55:25;;;;;;;2.60;1.13;;;20.50;67.40;;;;;;6304154;22;20165;-84
2023/09/11 05:57:53;;;;;;;0.37;0.37;;;20.60;67.80;;;;;;6318762;22;20169;-92
2023/09/11 06:00:24;;;;;;;0.80;0.50;;;20.70;67.60;;;;;;6309626;22;20599;-83
2023/09/11 06:02:54;;;;;;;0.97;0.77;;;20.80;67.60;;;;;;6304534;22;20154;-84
2023/09/11 06:05:25;;;;;;;0.33;0.33;;;20.80;67.50;;;;;;6301996;22;20163;-84
2023/09/11 06:07:53;;;;;;;0.40;0.40;;;20.90;67.50;;;;;;6303754;22;20207;-84
2023/09/11 06:18:41;;;;;;;0.30;0.30;;;21.20;67.20;;;;;;6334907;22;20199;-83
2023/09/11 06:21:10;;;;;;;0.20;0.20;;;21.30;67.10;;;;;;6335021;22;20553;-84
2023/09/11 06:23:39;;;;;;;2.00;0.70;;;21.30;66.90;;;;;;6336549;22;20692;-84
2023/09/11 06:26:07;;;;;;;0.50;0.50;;;21.40;67.10;;;;;;6337485;22;20195;-85
2023/09/11 06:28:36;;;;;;;0.20;0.20;;;21.40;66.90;;;;;;6336771;22;20223;-84
2023/09/11 06:31:05;;;;;;;0.85;0.40;;;21.50;66.80;;;;;;6338338;22;20261;-86
2023/09/11 06:36:34;;;;;;;0.55;0.55;;;21.70;66.40;;;;;;6322217;22;20250;-84
2023/09/11 06:39:05;;;;;;;0.35;0.35;;;21.80;66.10;;;;;;6336793;22;20214;-85
2023/09/11 06:41:34;;;;;;;0.20;0.20;;;21.80;65.80;;;;;;6333823;22;20227;-84
2023/09/11 06:44:02;;;;;;;0.63;0.63;;;21.90;65.60;;;;;;6334445;22;20222;-84
2023/09/11 06:46:31;;;;;;;0.20;0.20;;;22.00;65.30;;;;;;6336357;22;20242;-85
2023/09/11 06:49:01;;;;;;;0.30;0.30;;;22.10;65.10;;;;;;6335537;22;20182;-85
2023/09/11 06:51:29;;;;;;;0.40;0.40;;;22.10;64.70;;;;;;6335469;22;20215;-83
2023/09/11 06:53:58;;;;;;;0.20;0.20;;;22.20;64.60;;;;;;6333938;22;20173;-85
2023/09/11 06:56:26;;;;;;;0.25;0.25;;;22.30;64.60;;;;;;6336522;22;20164;-86
2023/09/11 06:58:55;;;;;;;0.22;0.22;;;22.30;64.30;;;;;;6336411;22;20164;-85
2023/09/11 07:01:23;;;;;;;0.30;0.30;;;22.40;64.20;;;;;;6333761;22;20176;-87
2023/09/11 07:03:52;;;;;;;0.20;0.20;;;22.50;64.10;;;;;;6334502;22;20186;-85
2023/09/11 07:06:22;;;;;;;0.60;0.60;;;22.50;63.90;;;;;;6334269;22;20164;-85
2023/09/11 07:08:50;;;;;;;0.63;0.47;;;22.60;63.90;;;;;;6337261;22;20171;-83
2023/09/11 07:11:19;;;;;;;0.50;0.40;;;22.70;63.80;;;;;;6333078;22;20394;-86
2023/09/11 07:13:49;;;;;;;0.20;0.20;;;22.80;63.80;;;;;;6337847;22;20176;-86
2023/09/11 07:16:17;;;;;;;0.80;0.50;;;22.90;63.00;;;;;;6336730;22;20606;-87
2023/09/11 07:18:46;;;;;;;0.47;0.43;;;22.90;62.90;;;;;;6306310;22;20169;-86
2023/09/11 07:21:15;;;;;;;0.63;0.63;;;23.00;62.30;;;;;;6304485;22;20204;-86
2023/09/11 07:23:45;;;;;;;21.13;1.75;;;23.10;61.70;;;;;;6306872;22;20161;-85
2023/09/11 07:26:13;;;;;;;0.40;0.35;;;23.10;61.70;;;;;;6305208;22;20180;-85
2023/09/11 07:28:54;;;;;;;0.28;0.28;;;23.20;61.60;;;;;;6305118;22;20169;-86
2023/09/11 07:31:23;;;;;;;0.28;0.28;;;23.30;61.20;;;;;;6302662;22;20196;-84
2023/09/11 07:33:52;;;;;;;0.30;0.30;;;23.30;61.10;;;;;;6301884;22;20637;-84
2023/09/11 07:36:20;;;;;;;0.35;0.35;;;23.40;60.60;;;;;;6305532;22;20173;-83
2023/09/11 07:38:50;;;;;;;0.20;0.20;;;23.40;60.60;;;;;;6304290;22;20169;-83
2023/09/11 07:41:19;;;;;;;1.00;0.45;;;23.50;60.00;;;;;;6303127;22;21019;-87
2023/09/11 07:43:49;;;;;;;0.28;0.22;;;23.60;59.90;;;;;;6302406;22;20161;-84
2023/09/11 07:46:20;;;;;;;0.32;0.32;;;23.60;59.70;;;;;;6300265;22;20647;-83
2023/09/11 07:48:49;;;;;;;0.30;0.30;;;23.70;59.50;;;;;;6303995;22;20177;-85
2023/09/11 07:51:18;;;;;;;0.45;0.45;;;23.70;58.50;;;;;;6303571;22;20243;-85
2023/09/11 07:53:47;;;;;;;0.40;0.40;;;23.80;58.30;;;;;;6305460;22;20169;-86
2023/09/11 07:56:17;;;;;;;0.63;0.38;;;23.80;58.50;;;;;;6302499;22;20709;-85
2023/09/11 07:58:50;;;;;;;0.30;0.30;;;23.90;58.10;;;;;;6304423;22;20180;-85
2023/09/11 08:01:19;;;;;;;0.43;0.43;;;23.90;57.10;;;;;;6304297;22;20168;-85
2023/09/11 08:03:47;;;;;;;1.40;1.13;;;24.00;57.10;;;;;;6305378;22;20161;-86
2023/09/11 08:06:16;;;;;;;1.33;0.77;;;24.10;57.10;;;;;;6304007;22;20165;-87
2023/09/11 08:08:45;;;;;;;0.20;0.20;;;24.10;56.70;;;;;;6304905;22;20161;-84
2023/09/11 08:11:15;;;;;;;0.30;0.30;;;24.20;56.60;;;;;;6303996;22;20572;-86
2023/09/11 08:13:46;;;;;;;1.23;0.80;;;24.20;56.60;;;;;;6305153;22;20165;-85
2023/09/11 08:16:16;;;;;;;0.40;0.40;;;24.30;56.20;;;;;;6302142;22;20245;-84
2023/09/11 08:18:45;;;;;;;2.17;0.95;;;24.30;56.10;;;;;;6337510;22;20176;-87
2023/09/11 08:21:14;;;;;;;1.75;0.70;;;24.30;55.90;;;;;;6334730;22;20207;-85
2023/09/11 08:23:43;;;;;;;0.60;0.35;;;24.40;56.10;;;;;;6336711;22;20220;-84
2023/09/11 08:26:13;;;;;;;0.50;0.50;;;24.50;55.90;;;;;;6333181;22;20597;-83
2023/09/11 08:28:41;;;;;;;0.65;0.65;;;24.50;55.80;;;;;;6335878;22;20222;-85
2023/09/11 08:31:12;;;;;;;0.30;0.30;;;24.60;55.60;;;;;;6334738;22;20226;-85
2023/09/11 08:33:41;;;;;;;1.17;0.68;;;24.60;55.50;;;;;;6336679;22;20169;-86
2023/09/11 08:36:23;;;;;;;6.45;1.40;;;24.60;55.20;;;;;;6335007;22;20159;-86
2023/09/11 08:38:52;;;;;;;0.40;0.40;;;24.60;52.60;;;;;;6335886;22;20164;-84
2023/09/11 08:41:22;;;;;;;0.30;0.30;;;24.60;51.60;;;;;;6334621;22;20164;-85
2023/09/11 08:43:51;;;;;;;1.27;1.17;;;24.70;52.60;;;;;;6336825;22;20165;-83
2023/09/11 08:46:23;;;;;;;0.40;0.40;;;24.80;52.90;;;;;;6331891;22;20175;-85
2023/09/11 08:48:56;;;;;;;0.35;0.35;;;24.80;52.20;;;;;;6335875;22;20157;-84
2023/09/11 08:51:30;;;;;;;0.30;0.30;;;24.90;52.60;;;;;;6335951;22;20267;-85
2023/09/11 08:54:01;;;;;;;0.20;0.20;;;24.90;52.80;;;;;;6336217;22;20156;-85
2023/09/11 08:56:31;;;;;;;1.35;0.32;;;25.00;53.20;;;;;;6333821;22;20240;-86
2023/09/11 08:59:01;;;;;;;0.30;0.30;;;25.00;52.90;;;;;;6333945;22;20255;-85
2023/09/11 09:10:44;;;;;;;0.20;0.20;;;25.20;52.00;;;;;;6273573;22;20200;-85
2023/09/11 09:13:12;;;;;;;1.00;0.85;;;25.30;52.00;;;;;;6274038;22;20186;-84
2023/09/11 09:15:44;;;;;;;0.35;0.30;;;25.30;51.80;;;;;;6272089;22;20166;-83
2023/09/11 09:18:13;;;;;;;0.30;0.30;;;25.30;51.70;;;;;;6248001;22;20165;-85
2023/09/11 09:20:42;;;;;;;0.68;0.68;;;25.30;51.10;;;;;;6273475;22;20165;-83
2023/09/11 09:23:12;;;;;;;0.30;0.30;;;25.40;51.40;;;;;;6273165;22;20174;-83
2023/09/11 09:25:41;;;;;;;0.28;0.28;;;25.40;51.40;;;;;;6273217;22;20190;-85
2023/09/11 09:28:28;;;;;;;0.25;0.25;;;25.50;51.60;;;;;;6273035;22;20223;-84
2023/09/11 09:31:05;;;;;;;0.40;0.40;;;25.60;51.30;;;;;;6272055;22;20185;-86
2023/09/11 09:33:36;;;;;;;0.30;0.30;;;25.60;50.90;;;;;;6273753;22;20162;-83
2023/09/11 09:36:09;;;;;;;1.02;0.75;;;25.60;50.30;;;;;;6272259;22;20170;-87
2023/09/11 09:38:42;;;;;;;0.52;0.30;;;25.60;50.30;;;;;;6270235;22;20189;-85
2023/09/11 09:41:11;;;;;;;0.30;0.30;;;25.70;50.50;;;;;;6271472;22;20277;-84
2023/09/11 09:43:41;;;;;;;0.40;0.40;;;25.70;50.40;;;;;;6272002;22;20168;-84
2023/09/11 09:46:19;;;;;;;0.50;0.50;;;25.80;50.50;;;;;;6271394;22;20165;-84
2023/09/11 09:48:48;;;;;;;0.20;0.20;;;25.80;49.70;;;;;;6272950;22;20216;-85
2023/09/11 09:51:17;;;;;;;0.32;0.30;;;25.90;50.10;;;;;;6270862;22;20515;-84
2023/09/11 09:53:46;;;;;;;0.30;0.30;;;25.90;50.30;;;;;;6272564;22;20170;-86
2023/09/11 09:56:16;;;;;;;4.90;0.55;;;26.00;50.20;;;;;;6272036;22;20170;-84
2023/09/11 09:58:46;;;;;;;0.20;0.20;;;26.00;50.00;;;;;;6275248;22;20172;-85
2023/09/11 10:01:19;;;;;;;0.45;0.45;;;26.10;49.70;;;;;;6273929;22;20218;-86
2023/09/11 10:03:50;;;;;;;0.25;0.25;;;26.10;49.70;;;;;;6273121;22;20162;-83
2023/09/11 10:06:23;;;;;;;0.65;0.65;;;26.10;48.90;;;;;;6274891;22;20174;-89
2023/09/11 10:09:05;;;;;;;0.30;0.30;;;26.20;49.10;;;;;;6273677;22;20580;-83
2023/09/11 10:11:35;;;;;;;1.00;0.50;;;26.30;48.90;;;;;;6273089;22;20174;-84
2023/09/11 10:14:07;;;;;;;0.30;0.30;;;26.30;48.70;;;;;;6272403;22;20204;-83
2023/09/11 10:16:35;;;;;;;0.30;0.30;;;26.30;47.90;;;;;;6275780;22;20250;-84
2023/09/11 10:19:04;;;;;;;2.80;0.82;;;26.40;48.60;;;;;;6272112;22;20557;-83
2023/09/11 10:21:34;;;;;;;0.45;0.45;;;26.40;48.50;;;;;;6275115;22;20206;-84
2023/09/11 10:24:03;;;;;;;0.45;0.45;;;26.50;47.90;;;;;;6272456;22;20403;-83
2023/09/11 10:26:37;;;;;;;0.52;0.52;;;26.50;47.50;;;;;;6274100;22;20193;-83
2023/09/11 10:29:11;;;;;;;0.25;0.25;;;26.60;48.20;;;;;;6273527;22;20154;-86
2023/09/11 10:31:46;;;;;;;0.20;0.20;;;26.60;48.30;;;;;;6272089;22;20608;-85
2023/09/11 10:34:19;;;;;;;0.45;0.45;;;26.70;48.40;;;;;;6244360;22;20174;-83
2023/09/11 10:36:56;;;;;;;3.10;0.95;;;26.70;48.40;;;;;;6270614;22;20165;-83
2023/09/11 10:39:25;;;;;;;0.43;0.40;;;26.80;48.60;;;;;;6272089;22;20168;-82
2023/09/11 10:41:53;;;;;;;1.02;0.57;;;26.80;48.10;;;;;;6273399;22;20162;-82
2023/09/11 10:44:23;;;;;;;0.40;0.40;;;26.80;47.50;;;;;;6271515;22;20205;-83
2023/09/11 10:46:53;;;;;;;1.77;0.93;;;26.90;47.30;;;;;;6274053;22;20198;-83
2023/09/11 10:49:23;;;;;;;0.55;0.55;;;26.90;47.10;;;;;;6272634;22;20472;-83
2023/09/11 10:51:52;;;;;;;0.20;0.20;;;27.00;47.80;;;;;;6274351;22;20224;-83
2023/09/11 10:54:23;;;;;;;0.40;0.30;;;26.90;47.10;;;;;;6274400;22;20245;-83
2023/09/11 10:56:53;;;;;;;0.30;0.30;;;27.00;46.90;;;;;;6271599;22;20158;-82
2023/09/11 10:59:25;;;;;;;0.40;0.40;;;27.00;47.10;;;;;;6272490;22;20169;-84
2023/09/11 11:01:53;;;;;;;0.30;0.30;;;27.10;47.30;;;;;;6273352;22;20189;-82
2023/09/11 11:04:24;;;;;;;0.30;0.30;;;27.10;47.10;;;;;;6271832;22;20169;-83
2023/09/11 11:06:56;;;;;;;0.32;0.30;;;27.20;47.40;;;;;;6271863;22;20168;-84
2023/09/11 11:09:26;;;;;;;0.45;0.30;;;27.20;47.60;;;;;;6274196;22;20265;-83
2023/09/11 11:11:59;;;;;;;2.72;1.42;;;27.20;47.70;;;;;;6276100;22;20165;-83
2023/09/11 11:14:29;;;;;;;0.22;0.22;;;27.30;47.30;;;;;;6270840;22;20170;-83
2023/09/11 11:17:03;;;;;;;0.43;0.43;;;27.30;46.50;;;;;;6274354;22;20162;-84
2023/09/11 11:19:33;;;;;;;0.45;0.43;;;27.30;46.50;;;;;;6274300;22;20595;-84
2023/09/11 11:22:03;;;;;;;0.50;0.50;;;27.40;47.00;;;;;;6275136;22;20240;-83
2023/09/11 11:24:34;;;;;;;0.85;0.68;;;27.40;46.90;;;;;;6275819;22;20154;-81
2023/09/11 11:27:04;;;;;;;0.57;0.55;;;27.40;47.20;;;;;;6274526;22;20166;-82
2023/09/11 11:29:35;;;;;;;1.75;0.52;;;27.50;46.80;;;;;;6275857;22;20184;-83
2023/09/11 11:32:07;;;;;;;2.28;0.90;;;27.50;46.30;;;;;;6274572;22;20170;-83
2023/09/11 11:34:37;;;;;;;0.50;0.50;;;27.50;46.30;;;;;;6272741;22;20250;-82
2023/09/11 11:37:06;;;;;;;0.45;0.45;;;27.60;46.00;;;;;;6270727;22;20502;-83
2023/09/11 11:39:37;;;;;;;0.35;0.30;;;27.60;46.50;;;;;;6272126;22;20166;-81
2023/09/11 11:42:07;;;;;;;1.00;0.50;;;27.60;46.30;;;;;;6268917;22;20190;-82
2023/09/11 11:44:38;;;;;;;0.38;0.25;;;27.70;46.40;;;;;;6273752;22;20158;-84
2023/09/11 11:47:07;;;;;;;0.88;0.47;;;27.70;47.00;;;;;;6270826;22;20158;-83
2023/09/11 11:49:36;;;;;;;0.30;0.30;;;27.80;46.40;;;;;;6273881;22;20170;-83
2023/09/11 11:52:06;;;;;;;1.15;0.30;;;27.80;46.30;;;;;;6274676;22;20227;-85
2023/09/11 11:54:35;;;;;;;0.63;0.30;;;27.80;46.50;;;;;;6274668;22;20699;-84
2023/09/11 11:57:05;;;;;;;0.35;0.35;;;27.90;46.80;;;;;;6274673;22;20169;-82
2023/09/11 11:59:36;;;;;;;2.22;1.08;;;27.90;46.80;;;;;;6273897;22;20472;-83
2023/09/11 12:02:05;;;;;;;0.38;0.38;;;28.00;46.90;;;;;;6273308;22;20154;-83
2023/09/11 12:04:43;;;;;;;0.30;0.30;;;28.00;46.60;;;;;;6274502;22;20170;-83
2023/09/11 12:07:17;;;;;;;0.30;0.30;;;28.10;46.70;;;;;;6273208;22;20176;-84
2023/09/11 12:09:46;;;;;;;0.38;0.38;;;28.20;46.90;;;;;;6275020;22;20251;-84
2023/09/11 12:12:15;;;;;;;0.57;0.57;;;28.30;46.90;;;;;;6272517;22;20166;-83
2023/09/11 12:14:45;;;;;;;0.85;0.82;;;28.30;46.80;;;;;;6274104;22;20642;-84
2023/09/11 12:17:14;;;;;;;0.35;0.35;;;28.40;47.00;;;;;;6272570;22;20170;-85
2023/09/11 12:19:43;;;;;;;0.22;0.22;;;28.40;46.90;;;;;;6274607;22;20245;-83
2023/09/11 12:22:11;;;;;;;0.60;0.40;;;28.50;47.00;;;;;;6273707;22;20208;-83
2023/09/11 12:24:40;;;;;;;0.30;0.30;;;28.50;46.80;;;;;;6274672;22;20173;-84
2023/09/11 12:27:08;;;;;;;0.30;0.30;;;28.50;45.70;;;;;;6274127;22;20170;-84
2023/09/11 12:29:40;;;;;;;1.33;0.40;;;28.50;45.30;;;;;;6275007;22;20173;-83
2023/09/11 12:32:10;;;;;;;1.60;0.55;;;28.50;45.50;;;;;;6272698;22;20158;-83
2023/09/11 12:34:43;;;;;;;0.40;0.40;;;28.60;45.20;;;;;;6273076;22;20348;-84
2023/09/11 12:37:12;;;;;;;0.40;0.40;;;28.60;45.30;;;;;;6273533;22;20244;-84
2023/09/11 12:39:41;;;;;;;0.40;0.40;;;28.60;45.70;;;;;;6271740;22;20690;-83
2023/09/11 12:42:09;;;;;;;0.88;0.82;;;28.60;45.70;;;;;;6273282;22;20189;-82
2023/09/11 12:44:38;;;;;;;0.52;0.40;;;28.70;45.80;;;;;;6270710;22;20249;-84
2023/09/11 12:47:07;;;;;;;0.40;0.40;;;28.70;46.00;;;;;;6273543;22;20239;-85
2023/09/11 12:49:38;;;;;;;0.20;0.20;;;28.70;46.10;;;;;;6273859;22;20618;-83
2023/09/11 12:52:07;;;;;;;0.63;0.38;;;28.70;45.80;;;;;;6274049;22;20215;-83
2023/09/11 12:54:36;;;;;;;0.30;0.30;;;28.70;45.20;;;;;;6272904;22;20224;-84
2023/09/11 12:57:06;;;;;;;0.98;0.70;;;28.80;45.40;;;;;;6272240;22;20604;-84
2023/09/11 12:59:34;;;;;;;0.65;0.52;;;28.80;45.00;;;;;;6273182;22;20227;-84
2023/09/11 13:02:04;;;;;;;0.30;0.30;;;28.80;45.30;;;;;;6271000;22;20177;-84
2023/09/11 13:04:34;;;;;;;0.30;0.30;;;28.90;45.40;;;;;;6272730;22;20174;-84
2023/09/11 13:07:07;;;;;;;0.25;0.25;;;28.90;45.30;;;;;;6271542;22;20636;-84
2023/09/11 13:09:36;;;;;;;1.65;0.95;;;28.90;45.20;;;;;;6273333;22;20213;-84
2023/09/11 13:12:06;;;;;;;0.20;0.20;;;28.90;46.30;;;;;;6272905;22;20510;-84
2023/09/11 13:14:34;;;;;;;0.20;0.20;;;28.90;45.80;;;;;;6272077;22;20201;-83
2023/09/11 13:17:03;;;;;;;0.20;0.20;;;29.00;45.80;;;;;;6271784;22;20190;-84
2023/09/11 13:19:32;;;;;;;0.35;0.30;;;29.00;45.70;;;;;;6271329;22;20173;-83
2023/09/11 13:22:00;;;;;;;1.23;0.90;;;29.10;45.70;;;;;;6269427;22;20174;-84